Time;durP1;ratioP1;P1;durP2;ratioP2;P2;SDS_P1;SDS_P2;PMS_P1;PMS_P2;Temp;Humidity;BMP_temperature;BMP_pressure;BME280_temperature;BME280_humidity;BME280_pressure;Samples;Min_cycle;Max_cycle;Signal;HPM_P1;HPM_P2
2021/09/22 00:01:37;;;;;;;14.13;10.88;;;;;;;9.99;77.50;100449.39;254473;1104;116225;-69
2021/09/22 00:06:41;;;;;;;10.07;9.07;;;;;;;9.95;77.55;100448.19;254232;1104;116316;-67
2021/09/22 00:11:44;;;;;;;13.33;8.08;;;;;;;9.88;77.73;100439.41;253994;1104;118885;-68
2021/09/22 00:16:47;;;;;;;13.40;10.17;;;;;;;9.86;77.71;100455.59;254621;1099;115637;-67
2021/09/22 00:21:51;;;;;;;12.18;8.40;;;;;;;9.88;77.87;100450.06;255035;1104;116029;-67
2021/09/22 00:26:54;;;;;;;13.65;9.03;;;;;;;9.91;78.22;100445.13;257247;1098;115560;-69
2021/09/22 00:31:58;;;;;;;11.03;7.97;;;;;;;9.88;77.71;100450.88;254498;1104;115691;-68
2021/09/22 00:37:06;;;;;;;11.18;8.78;;;;;;;9.84;77.73;100452.33;255756;1104;115334;-68
2021/09/22 00:42:09;;;;;;;10.60;9.13;;;;;;;9.80;78.33;100443.94;254493;1099;115667;-68
2021/09/22 00:47:14;;;;;;;15.03;9.50;;;;;;;9.77;78.27;100443.58;256388;1104;114962;-69
2021/09/22 00:52:18;;;;;;;12.50;8.78;;;;;;;9.77;78.60;100441.73;256899;1104;115418;-69
2021/09/22 00:57:22;;;;;;;16.15;8.93;;;;;;;9.78;78.23;100440.67;255016;1104;115271;-67
2021/09/22 01:02:25;;;;;;;13.53;9.58;;;;;;;9.84;78.86;100432.87;255820;1104;115104;-68
2021/09/22 01:07:31;;;;;;;15.70;10.78;;;;;;;9.89;77.95;100441.86;254825;1104;115682;-68
2021/09/22 01:12:35;;;;;;;17.25;9.28;;;;;;;9.87;78.15;100437.77;255179;1104;115977;-68
2021/09/22 01:17:39;;;;;;;12.08;10.75;;;;;;;9.85;78.09;100432.66;255634;1104;115600;-66
2021/09/22 01:22:42;;;;;;;12.83;9.15;;;;;;;9.81;78.14;100431.44;254202;1104;114929;-67
2021/09/22 01:27:50;;;;;;;15.70;10.30;;;;;;;9.82;78.46;100433.08;255495;1104;114792;-67
2021/09/22 01:33:00;;;;;;;14.30;9.58;;;;;;;9.84;78.00;100439.02;255008;1104;115462;-67
2021/09/22 01:38:07;;;;;;;12.85;10.05;;;;;;;9.82;78.06;100429.60;254079;1104;116411;-67
2021/09/22 01:43:10;;;;;;;13.13;9.38;;;;;;;9.75;78.31;100430.48;254098;1104;116080;-66
2021/09/22 01:48:12;;;;;;;15.43;10.38;;;;;;;9.72;78.96;100430.89;254424;1104;115610;-66
2021/09/22 01:53:16;;;;;;;14.33;10.45;;;;;;;9.73;78.39;100416.55;254671;1104;116270;-67
2021/09/22 01:58:19;;;;;;;12.15;8.80;;;;;;;9.75;78.97;100419.83;255287;1100;115258;-66
2021/09/22 02:03:22;;;;;;;12.38;9.78;;;;;;;9.77;78.86;100428.42;255604;1104;134893;-67
2021/09/22 02:08:26;;;;;;;13.70;8.78;;;;;;;9.76;78.79;100424.13;253748;1104;116628;-65
2021/09/22 02:13:35;;;;;;;11.33;8.63;;;;;;;9.75;78.52;100424.33;254111;1100;115892;-69
2021/09/22 02:18:38;;;;;;;11.03;7.18;;;;;;;9.68;78.41;100416.38;254749;1104;115633;-67
2021/09/22 02:23:42;;;;;;;11.05;7.93;;;;;;;9.66;78.61;100414.95;253761;1104;115200;-67
2021/09/22 02:28:45;;;;;;;11.68;8.13;;;;;;;9.57;78.50;100416.20;255274;1104;115816;-67
2021/09/22 02:33:48;;;;;;;11.23;8.33;;;;;;;9.50;78.23;100416.23;257203;1104;115466;-68
2021/09/22 02:38:51;;;;;;;12.18;9.10;;;;;;;9.47;78.65;100423.84;256945;1104;115434;-68
2021/09/22 02:43:54;;;;;;;11.78;9.05;;;;;;;9.44;78.61;100423.23;257160;1104;115503;-68
2021/09/22 02:48:58;;;;;;;10.73;7.95;;;;;;;9.42;78.38;100427.13;256984;1104;115322;-68
2021/09/22 02:54:01;;;;;;;11.70;9.60;;;;;;;9.42;78.70;100429.79;255415;1104;116761;-68
2021/09/22 02:59:04;;;;;;;10.23;8.67;;;;;;;9.38;78.40;100423.25;257118;1104;115279;-68
2021/09/22 03:04:07;;;;;;;12.75;8.93;;;;;;;9.38;78.30;100428.58;256456;1104;114853;-68
2021/09/22 03:09:11;;;;;;;15.23;9.40;;;;;;;9.40;78.21;100426.52;256381;1104;116110;-67
2021/09/22 03:14:14;;;;;;;12.95;10.20;;;;;;;9.40;78.49;100424.68;254004;1099;115711;-67
2021/09/22 03:19:17;;;;;;;13.30;9.38;;;;;;;9.41;78.73;100428.16;256630;1104;116638;-67
2021/09/22 03:24:20;;;;;;;14.43;9.18;;;;;;;9.39;78.65;100428.37;255376;1104;115492;-69
2021/09/22 03:29:22;;;;;;;12.58;9.28;;;;;;;9.38;78.76;100431.23;254929;1104;115359;-69
2021/09/22 03:34:26;;;;;;;13.38;9.48;;;;;;;9.37;79.00;100433.08;254824;1104;114885;-67
2021/09/22 03:39:29;;;;;;;14.48;10.43;;;;;;;9.37;78.60;100433.08;254443;1104;115329;-68
2021/09/22 03:44:31;;;;;;;15.00;9.48;;;;;;;9.33;78.47;100439.02;253815;1104;116513;-68
2021/09/22 03:49:34;;;;;;;14.15;9.43;;;;;;;9.29;78.34;100440.46;253951;1104;116377;-67
2021/09/22 03:54:38;;;;;;;16.63;10.83;;;;;;;9.29;79.12;100443.13;254613;1104;116018;-67
2021/09/22 03:59:42;;;;;;;14.77;9.73;;;;;;;9.27;78.59;100442.52;253981;1104;116374;-67
2021/09/22 04:04:46;;;;;;;15.03;10.85;;;;;;;9.25;78.92;100444.56;253905;1104;116051;-67
2021/09/22 04:09:49;;;;;;;17.73;11.13;;;;;;;9.23;78.85;100454.59;254722;1100;116019;-66
2021/09/22 04:14:53;;;;;;;17.23;11.65;;;;;;;9.22;79.18;100444.98;255227;1099;116231;-66
2021/09/22 04:19:57;;;;;;;17.00;11.28;;;;;;;9.25;78.76;100455.20;253882;1104;116296;-69
2021/09/22 04:25:01;;;;;;;12.95;9.50;;;;;;;9.28;79.62;100454.79;253783;1104;116662;-66
2021/09/22 04:30:06;;;;;;;18.68;11.73;;;;;;;9.33;79.58;100454.98;256730;1104;115153;-67
2021/09/22 04:35:10;;;;;;;16.35;11.95;;;;;;;9.38;79.66;100460.50;254162;1098;115708;-66
2021/09/22 04:40:15;;;;;;;12.90;9.13;;;;;;;9.37;79.00;100465.01;256131;1104;115594;-67
2021/09/22 04:45:19;;;;;;;19.58;11.48;;;;;;;9.38;79.09;100465.83;255595;1104;115735;-66
2021/09/22 04:50:23;;;;;;;19.35;12.05;;;;;;;9.40;79.87;100459.27;255208;1104;115741;-67
2021/09/22 04:55:26;;;;;;;14.88;11.75;;;;;;;9.45;79.20;100455.98;257044;1104;115551;-66
2021/09/22 05:00:30;;;;;;;18.63;11.00;;;;;;;9.49;79.59;100459.02;257201;1104;116181;-67
2021/09/22 05:05:35;;;;;;;12.65;9.93;;;;;;;9.47;79.17;100464.58;255815;1104;115826;-66
2021/09/22 05:10:39;;;;;;;17.80;12.50;;;;;;;9.52;79.09;100467.41;256076;1104;115757;-66
2021/09/22 05:15:42;;;;;;;13.25;10.13;;;;;;;9.62;79.01;100466.97;255071;1104;115378;-66
2021/09/22 05:20:44;;;;;;;17.97;12.70;;;;;;;9.69;79.26;100468.59;254086;1104;116656;-66
2021/09/22 05:25:49;;;;;;;15.10;10.38;;;;;;;9.65;78.83;100475.36;255420;1104;116086;-66
2021/09/22 05:30:52;;;;;;;14.85;10.68;;;;;;;9.63;78.92;100473.92;255874;1104;115725;-67
2021/09/22 05:35:55;;;;;;;16.70;12.28;;;;;;;9.55;78.50;100488.28;255256;1104;115646;-69
2021/09/22 05:40:59;;;;;;;14.40;10.57;;;;;;;9.59;79.33;100491.34;255444;1104;116189;-66
2021/09/22 05:46:03;;;;;;;15.13;11.30;;;;;;;9.68;78.53;100490.09;254641;1104;115316;-66
2021/09/22 05:51:06;;;;;;;16.03;10.58;;;;;;;9.90;79.04;100486.10;254016;1104;115210;-65
2021/09/22 05:56:12;;;;;;;19.13;12.23;;;;;;;10.18;79.33;100487.59;254509;1104;115105;-66
2021/09/22 06:01:17;;;;;;;16.87;12.07;;;;;;;10.57;79.11;100494.56;254108;1104;115116;-66
2021/09/22 06:06:20;;;;;;;16.28;11.08;;;;;;;10.73;78.34;100502.83;255943;1104;115492;-66
2021/09/22 06:11:27;;;;;;;16.65;10.83;;;;;;;10.72;78.36;100521.72;253746;1104;116441;-66
2021/09/22 06:16:30;;;;;;;18.63;11.13;;;;;;;10.69;78.25;100525.66;254413;1104;115731;-67
2021/09/22 06:21:34;;;;;;;15.48;11.08;;;;;;;10.69;78.22;100522.17;253851;1100;115677;-66
2021/09/22 06:26:41;;;;;;;16.88;12.08;;;;;;;10.84;78.14;100525.33;255984;1104;115274;-67
2021/09/22 06:31:47;;;;;;;16.95;10.15;;;;;;;10.91;78.03;100530.62;254443;1104;115942;-66
2021/09/22 06:36:50;;;;;;;27.15;11.03;;;;;;;10.92;77.65;100527.73;254695;1104;115393;-66
2021/09/22 06:41:55;;;;;;;13.93;10.55;;;;;;;10.92;77.76;100530.41;255143;1104;116127;-66
2021/09/22 06:46:58;;;;;;;14.20;9.85;;;;;;;10.96;77.79;100539.61;256977;1104;117976;-67
2021/09/22 06:52:01;;;;;;;11.45;9.73;;;;;;;10.97;77.54;100538.58;257252;1104;115523;-67
2021/09/22 06:57:05;;;;;;;14.95;10.28;;;;;;;11.08;77.53;100542.37;257279;1104;115531;-67
2021/09/22 07:02:08;;;;;;;11.57;9.77;;;;;;;11.17;77.56;100537.58;257215;1104;115527;-67
2021/09/22 07:07:12;;;;;;;15.05;9.33;;;;;;;11.37;77.41;100540.88;256232;1104;115526;-67
2021/09/22 07:12:15;;;;;;;11.85;9.33;;;;;;;11.44;76.95;100553.13;254969;1104;115588;-66
2021/09/22 07:17:19;;;;;;;11.45;9.08;;;;;;;11.43;76.77;100556.02;255940;1104;115532;-67
2021/09/22 07:22:21;;;;;;;14.43;9.75;;;;;;;11.37;76.68;100562.23;254764;1104;114998;-67
2021/09/22 07:27:25;;;;;;;12.50;8.60;;;;;;;11.42;76.78;100562.39;255552;1104;115807;-67
2021/09/22 07:32:27;;;;;;;9.40;7.28;;;;;;;11.79;76.91;100571.30;254392;1104;115449;-66
2021/09/22 07:37:30;;;;;;;10.98;8.93;;;;;;;12.02;76.29;100576.77;253726;1104;115481;-67
2021/09/22 07:42:33;;;;;;;10.05;8.03;;;;;;;12.16;75.89;100584.64;253818;1098;115657;-66
2021/09/22 07:47:36;;;;;;;8.18;5.75;;;;;;;12.17;75.88;100580.94;254221;1104;115312;-67
2021/09/22 07:52:39;;;;;;;7.90;6.73;;;;;;;12.31;75.82;100591.22;253871;1104;115413;-67
2021/09/22 07:57:43;;;;;;;9.00;7.40;;;;;;;12.29;75.36;100587.95;253937;1104;115404;-67
2021/09/22 08:02:47;;;;;;;10.08;7.20;;;;;;;12.20;74.66;100586.66;253860;1104;115406;-66
2021/09/22 08:07:52;;;;;;;11.75;8.10;;;;;;;12.19;75.18;100593.03;253685;1104;116117;-67
2021/09/22 08:12:54;;;;;;;9.05;7.83;;;;;;;12.14;75.09;100596.38;254105;1104;114943;-69
2021/09/22 08:17:57;;;;;;;8.60;7.10;;;;;;;12.16;75.09;100598.83;254496;1104;114874;-68
2021/09/22 08:23:01;;;;;;;9.13;6.43;;;;;;;12.35;75.30;100597.76;254199;1104;117057;-69
2021/09/22 08:28:05;;;;;;;8.78;5.88;;;;;;;12.48;74.51;100602.95;254314;1104;115419;-69
2021/09/22 08:33:08;;;;;;;8.05;7.25;;;;;;;12.52;74.38;100592.62;253632;1104;114883;-66
2021/09/22 08:38:12;;;;;;;7.38;6.60;;;;;;;12.69;73.93;100590.11;255289;1104;115392;-69
2021/09/22 08:43:15;;;;;;;10.13;7.60;;;;;;;12.92;74.19;100598.19;257078;1104;115407;-66
2021/09/22 08:48:19;;;;;;;7.68;6.88;;;;;;;13.17;74.17;100597.22;255149;1104;115542;-67
2021/09/22 08:53:23;;;;;;;9.30;6.08;;;;;;;13.33;73.78;100615.30;257006;1104;115212;-68
2021/09/22 08:58:26;;;;;;;7.45;5.63;;;;;;;13.48;72.68;100595.03;257051;1104;115502;-68
2021/09/22 09:03:36;;;;;;;8.65;6.20;;;;;;;13.65;72.21;100605.88;257173;1104;116306;-66
2021/09/22 09:08:41;;;;;;;7.00;5.50;;;;;;;13.76;71.56;100599.68;254881;1104;115243;-66
2021/09/22 09:13:49;;;;;;;7.25;5.78;;;;;;;13.99;72.04;100587.32;257053;1104;115480;-67
2021/09/22 09:18:55;;;;;;;15.58;5.35;;;;;;;14.29;71.11;100595.17;255635;1100;115200;-68
2021/09/22 09:23:59;;;;;;;3.48;3.18;;;;;;;14.49;70.73;100598.27;254513;1104;115770;-68
2021/09/22 09:29:05;;;;;;;5.75;5.00;;;;;;;14.83;70.38;100575.83;254574;1104;116045;-68
2021/09/22 09:34:09;;;;;;;;;;;;;;;15.18;69.96;100565.92;254007;1104;116578;-68
2021/09/22 09:39:23;;;;;;;8.45;5.80;;;;;;;15.26;69.68;100574.39;256120;1104;103174;-69
2021/09/22 09:44:30;;;;;;;5.15;4.75;;;;;;;15.17;68.47;100562.42;255156;1104;115624;-68
2021/09/22 09:49:37;;;;;;;7.88;4.63;;;;;;;15.27;68.88;100557.22;254795;1104;115453;-67
2021/09/22 09:54:49;;;;;;;5.95;4.80;;;;;;;15.44;67.58;100559.87;255026;1104;115857;-68
2021/09/22 09:59:54;;;;;;;5.98;4.83;;;;;;;15.62;67.57;100562.30;253672;1100;116128;-68
2021/09/22 10:04:59;;;;;;;7.97;6.90;;;;;;;15.26;67.40;100560.14;254168;1099;115950;-68
2021/09/22 10:10:04;;;;;;;8.65;4.15;;;;;;;15.06;66.85;100561.44;254716;1104;116498;-67
2021/09/22 10:15:08;;;;;;;6.38;4.48;;;;;;;14.95;67.21;100554.29;254406;1104;115839;-67
2021/09/22 10:20:13;;;;;;;8.75;5.43;;;;;;;15.07;67.18;100552.32;254505;1104;116318;-67
2021/09/22 10:25:20;;;;;;;4.60;4.20;;;;;;;15.10;66.46;100556.39;254020;1104;116437;-70
2021/09/22 10:30:39;;;;;;;7.20;3.80;;;;;;;15.27;66.42;100551.84;254772;1104;116628;-66
2021/09/22 10:35:43;;;;;;;8.77;4.27;;;;;;;15.26;65.35;100547.53;253869;1104;115885;-69
2021/09/22 10:40:48;;;;;;;3.60;3.30;;;;;;;15.52;65.28;100551.39;253854;1104;115705;-67
2021/09/22 10:46:08;;;;;;;6.18;4.85;;;;;;;15.51;64.50;100547.08;255187;1104;116165;-67
2021/09/22 10:51:12;;;;;;;4.33;3.93;;;;;;;15.47;64.99;100548.63;254430;1100;115418;-67
2021/09/22 10:56:22;;;;;;;7.40;4.60;;;;;;;15.45;64.30;100550.75;254042;1104;116455;-67
2021/09/22 11:01:32;;;;;;;5.65;4.93;;;;;;;15.44;64.52;100549.13;255857;1104;115399;-68
2021/09/22 11:06:48;;;;;;;20.08;5.05;;;;;;;15.36;63.92;100550.34;257345;1104;118198;-67
2021/09/22 11:12:03;;;;;;;4.93;4.50;;;;;;;15.21;63.81;100552.81;257272;1104;114917;-67
2021/09/22 11:17:24;;;;;;;6.25;4.88;;;;;;;14.92;63.39;100554.77;257219;1104;115225;-67
2021/09/22 11:22:31;;;;;;;4.58;4.05;;;;;;;14.62;63.25;100560.43;256828;1104;116204;-67
2021/09/22 11:27:37;;;;;;;5.35;4.70;;;;;;;14.45;63.79;100560.38;255284;1099;115924;-67
2021/09/22 11:32:43;;;;;;;5.73;4.50;;;;;;;14.41;63.77;100558.41;253955;1104;115661;-67
2021/09/22 11:37:52;;;;;;;6.58;5.48;;;;;;;14.39;64.20;100571.20;254236;1104;115447;-67
2021/09/22 11:43:09;;;;;;;7.83;5.63;;;;;;;14.35;64.50;100554.80;254883;1104;115081;-67
2021/09/22 11:48:16;;;;;;;6.33;4.70;;;;;;;14.37;64.66;100559.94;255230;1104;117000;-67
2021/09/22 11:53:22;;;;;;;4.45;3.33;;;;;;;14.49;64.34;100553.48;254057;1104;115711;-68
2021/09/22 11:58:31;;;;;;;3.87;3.47;;;;;;;14.55;64.56;100553.58;253885;1104;115675;-66
2021/09/22 12:03:38;;;;;;;4.48;4.08;;;;;;;14.61;63.84;100558.80;254260;1104;115589;-67
2021/09/22 12:08:44;;;;;;;5.05;4.63;;;;;;;14.57;64.24;100556.83;253839;1104;115444;-68
2021/09/22 12:13:53;;;;;;;4.88;3.55;;;;;;;14.45;64.16;100554.19;254651;1104;114927;-67
2021/09/22 12:18:58;;;;;;;4.58;3.55;;;;;;;14.49;64.60;100550.80;254989;1104;115226;-68
2021/09/22 12:24:06;;;;;;;5.28;3.90;;;;;;;14.58;64.72;100558.46;254800;1104;115209;-67
2021/09/22 12:29:12;;;;;;;5.63;3.33;;;;;;;14.71;64.24;100552.78;255522;1104;115213;-67
2021/09/22 12:34:24;;;;;;;4.18;3.40;;;;;;;14.77;64.21;100554.50;255866;1104;116563;-67
2021/09/22 12:39:28;;;;;;;4.33;3.93;;;;;;;14.69;63.46;100560.25;254609;1099;115124;-67
2021/09/22 12:45:01;;;;;;;5.08;4.38;;;;;;;14.64;63.92;100555.63;255456;1104;115664;-67
2021/09/22 12:50:16;;;;;;;4.15;2.85;;;;;;;14.66;63.68;100560.77;256400;1104;115160;-67
2021/09/22 12:55:28;;;;;;;7.70;3.03;;;;;;;14.61;63.57;100549.94;253937;1104;115799;-66
2021/09/22 13:00:32;;;;;;;4.65;2.50;;;;;;;14.58;63.40;100545.86;257094;1104;115453;-67
2021/09/22 13:05:37;;;;;;;6.73;3.58;;;;;;;14.62;63.51;100549.69;257133;1104;114838;-69
2021/09/22 13:11:10;;;;;;;3.90;3.48;;;;;;;14.66;64.07;100550.84;256725;1104;115047;-67
2021/09/22 13:16:18;;;;;;;5.33;3.90;;;;;;;14.66;63.68;100547.34;256888;1103;114861;-68
2021/09/22 13:21:23;;;;;;;4.95;4.45;;;;;;;14.58;64.10;100550.41;257124;1104;115419;-68
2021/09/22 13:26:28;;;;;;;3.73;3.25;;;;;;;14.45;63.85;100541.59;255836;1104;115094;-68
2021/09/22 13:31:36;;;;;;;6.80;3.07;;;;;;;14.33;64.07;100542.69;255531;1104;115381;-67
2021/09/22 13:36:41;;;;;;;3.85;3.55;;;;;;;14.27;64.15;100543.64;254249;1104;115441;-67
2021/09/22 13:41:45;;;;;;;6.00;4.25;;;;;;;14.25;64.50;100554.60;253574;1100;115070;-67
2021/09/22 13:46:49;;;;;;;3.40;3.10;;;;;;;14.16;64.07;100556.84;256029;1100;114952;-67
2021/09/22 13:51:54;;;;;;;4.35;3.50;;;;;;;14.08;64.38;100559.88;254785;1104;115538;-67
2021/09/22 13:56:58;;;;;;;4.63;3.58;;;;;;;14.07;64.24;100557.44;254575;1104;115106;-66
2021/09/22 14:02:01;;;;;;;5.10;2.78;;;;;;;14.01;64.84;100558.41;254057;1104;115438;-67
2021/09/22 14:07:05;;;;;;;4.50;2.50;;;;;;;13.94;64.25;100555.05;253552;1104;115512;-66
2021/09/22 14:12:10;;;;;;;3.40;3.10;;;;;;;13.85;64.95;100551.91;254723;1104;114922;-66
2021/09/22 14:17:14;;;;;;;3.10;2.90;;;;;;;13.79;64.94;100542.13;255737;1104;115459;-68
2021/09/22 14:22:17;;;;;;;4.13;3.55;;;;;;;13.74;65.20;100539.36;254091;1104;114954;-67
2021/09/22 14:27:21;;;;;;;2.85;2.60;;;;;;;13.67;65.31;100539.48;255200;1104;115513;-67
2021/09/22 14:32:26;;;;;;;3.90;3.38;;;;;;;13.53;65.09;100543.45;254094;1104;115437;-66
2021/09/22 14:37:29;;;;;;;2.85;2.65;;;;;;;13.41;65.33;100539.98;255514;1104;115408;-67
2021/09/22 14:42:35;;;;;;;2.93;2.68;;;;;;;13.33;65.34;100533.11;260457;1088;114638;-67
2021/09/22 14:47:39;;;;;;;3.45;2.85;;;;;;;13.27;65.68;100535.89;255018;1103;115155;-67
2021/09/22 14:52:42;;;;;;;10.73;4.05;;;;;;;13.22;66.27;100533.09;253785;1099;115310;-68
2021/09/22 14:57:47;;;;;;;4.13;2.80;;;;;;;13.18;66.12;100535.42;253752;1104;115647;-68
2021/09/22 15:02:51;;;;;;;6.20;3.03;;;;;;;13.13;66.37;100538.78;253563;1104;115316;-69
2021/09/22 15:07:56;;;;;;;4.50;3.50;;;;;;;13.09;66.81;100542.97;253863;1104;115813;-69
2021/09/22 15:12:59;;;;;;;4.70;4.30;;;;;;;13.02;66.89;100544.11;253618;1097;115322;-68
2021/09/22 15:18:03;;;;;;;7.03;3.73;;;;;;;12.93;66.88;100540.13;255395;1104;115033;-68
2021/09/22 15:23:07;;;;;;;5.13;3.93;;;;;;;12.89;66.96;100544.31;255862;1098;115402;-67
2021/09/22 15:28:15;;;;;;;7.65;3.75;;;;;;;12.87;67.18;100539.19;253606;1097;116201;-68
2021/09/22 15:33:19;;;;;;;6.90;4.48;;;;;;;12.86;67.62;100540.23;254431;1104;116048;-68
2021/09/22 15:38:23;;;;;;;6.35;4.40;;;;;;;12.84;67.34;100536.97;255597;1104;115938;-68
2021/09/22 15:43:26;;;;;;;4.33;3.93;;;;;;;12.80;67.74;100530.47;254887;1104;117128;-68
2021/09/22 15:48:30;;;;;;;6.18;4.88;;;;;;;12.75;68.00;100535.70;254501;1104;116097;-69
2021/09/22 15:53:33;;;;;;;7.63;5.35;;;;;;;12.71;68.37;100540.69;256621;1104;115982;-70
2021/09/22 15:58:36;;;;;;;5.93;4.00;;;;;;;12.68;68.44;100530.44;257278;1104;117895;-71
2021/09/22 16:03:39;;;;;;;6.25;4.25;;;;;;;12.66;68.33;100526.36;256866;1104;115757;-69
2021/09/22 16:08:46;;;;;;;7.48;4.90;;;;;;;12.57;68.69;100533.88;257103;1104;116531;-69
2021/09/22 16:13:50;;;;;;;5.95;4.70;;;;;;;12.48;68.63;100532.59;255068;1104;115823;-69
2021/09/22 16:18:53;;;;;;;8.30;4.60;;;;;;;12.45;69.39;100539.22;254026;1100;116245;-69
2021/09/22 16:23:57;;;;;;;6.43;3.90;;;;;;;12.42;69.26;100536.18;254935;1104;118339;-68
2021/09/22 16:29:01;;;;;;;6.93;4.05;;;;;;;12.39;69.59;100533.95;254469;1104;116968;-69
2021/09/22 16:34:06;;;;;;;5.90;3.88;;;;;;;12.31;70.08;100529.73;255552;1100;115909;-68
2021/09/22 16:39:10;;;;;;;7.38;6.20;;;;;;;12.26;70.29;100534.13;254858;1104;116390;-69
2021/09/22 16:44:13;;;;;;;11.75;5.43;;;;;;;12.18;70.35;100529.93;254259;1104;116530;-68
2021/09/22 16:49:16;;;;;;;5.73;5.10;;;;;;;12.13;70.60;100516.42;256180;1099;116050;-69
2021/09/22 16:54:20;;;;;;;9.05;7.73;;;;;;;12.08;71.06;100524.30;254397;1104;116179;-68
2021/09/22 16:59:23;;;;;;;8.23;6.73;;;;;;;12.04;70.86;100523.92;254879;1104;115663;-71
2021/09/22 17:04:27;;;;;;;7.90;5.55;;;;;;;12.04;71.31;100515.91;254435;1104;115586;-68
2021/09/22 17:09:51;;;;;;;10.20;7.68;;;;;;;12.00;71.29;100511.23;254181;1104;115894;-69
2021/09/22 17:14:55;;;;;;;12.78;5.95;;;;;;;11.94;71.83;100518.28;255643;1104;116382;-66
2021/09/22 17:19:58;;;;;;;9.93;7.73;;;;;;;11.90;71.59;100511.78;254113;1098;117003;-68
2021/09/22 17:25:01;;;;;;;13.05;9.30;;;;;;;11.86;72.09;100510.59;253784;1104;115436;-68
2021/09/22 17:30:05;;;;;;;11.80;8.78;;;;;;;11.80;71.90;100519.50;255300;1104;118370;-68
2021/09/22 17:35:09;;;;;;;14.10;9.33;;;;;;;11.75;72.31;100504.11;253863;1104;116296;-68
2021/09/22 17:40:15;;;;;;;15.20;10.08;;;;;;;11.74;72.26;100509.67;253621;1104;116250;-68
2021/09/22 17:45:18;;;;;;;;;;;;;;;11.68;72.59;100500.69;254776;1104;115622;-68
2021/09/22 17:50:24;;;;;;;14.53;10.58;;;;;;;11.65;73.23;100498.47;257978;1104;103386;-68
2021/09/22 17:55:27;;;;;;;12.73;9.78;;;;;;;11.61;72.68;100502.64;255643;1104;116274;-68
2021/09/22 18:00:31;;;;;;;13.13;10.28;;;;;;;11.57;72.94;100498.78;256513;1104;116566;-67
2021/09/22 18:05:34;;;;;;;14.60;10.17;;;;;;;11.53;72.76;100502.94;256869;1104;116293;-68
2021/09/22 18:10:42;;;;;;;13.60;10.03;;;;;;;11.55;72.42;100500.86;256801;1104;116530;-66
2021/09/22 18:15:48;;;;;;;19.45;11.48;;;;;;;11.59;72.97;100501.23;255407;1104;115874;-67
2021/09/22 18:20:51;;;;;;;20.43;12.43;;;;;;;11.59;73.24;100495.89;257284;1104;116466;-68
2021/09/22 18:25:56;;;;;;;20.63;14.55;;;;;;;11.61;73.29;100493.82;255440;1104;116376;-68
2021/09/22 18:31:00;;;;;;;16.78;11.35;;;;;;;11.61;72.83;100493.82;255573;1099;116212;-69
2021/09/22 18:36:04;;;;;;;18.48;13.45;;;;;;;11.59;72.85;100488.70;256867;1104;116595;-66
2021/09/22 18:41:08;;;;;;;24.13;12.93;;;;;;;11.51;73.18;100491.66;254096;1104;116324;-70
2021/09/22 18:46:11;;;;;;;16.43;11.80;;;;;;;11.48;73.42;100495.59;255045;1104;116209;-68
2021/09/22 18:51:17;;;;;;;15.00;10.98;;;;;;;11.48;73.40;100506.27;254963;1104;116380;-67
2021/09/22 18:56:21;;;;;;;14.40;11.40;;;;;;;11.50;73.61;100499.89;254448;1097;115900;-67
2021/09/22 19:01:25;;;;;;;20.03;12.20;;;;;;;11.48;73.76;100502.78;254249;1104;115886;-68
2021/09/22 19:06:30;;;;;;;16.30;11.95;;;;;;;11.41;73.82;100494.02;254472;1104;115543;-68
2021/09/22 19:11:33;;;;;;;17.00;12.23;;;;;;;11.37;73.77;100487.48;254414;1104;115766;-68
2021/09/22 19:16:37;;;;;;;17.63;12.40;;;;;;;11.35;73.89;100489.55;254273;1104;115512;-68
2021/09/22 19:21:40;;;;;;;18.28;11.15;;;;;;;11.34;73.62;100487.92;253969;1104;115200;-67
2021/09/22 19:26:44;;;;;;;15.43;11.45;;;;;;;11.30;74.20;100481.42;254142;1099;115967;-67
2021/09/22 19:31:49;;;;;;;16.70;11.63;;;;;;;11.25;74.35;100483.93;253631;1104;115567;-67
2021/09/22 19:36:52;;;;;;;14.65;11.13;;;;;;;11.17;74.01;100485.03;254198;1104;137504;-67
2021/09/22 19:41:56;;;;;;;17.10;12.58;;;;;;;11.19;74.34;100480.28;254095;1100;115639;-66
2021/09/22 19:47:00;;;;;;;18.05;12.58;;;;;;;11.19;74.42;100480.28;253674;1104;116249;-67
2021/09/22 19:52:05;;;;;;;13.15;10.18;;;;;;;11.10;74.22;100471.74;255742;1104;116824;-68
2021/09/22 19:57:08;;;;;;;15.98;12.85;;;;;;;11.03;74.49;100470.16;257144;1104;116315;-68
2021/09/22 20:02:12;;;;;;;15.90;12.05;;;;;;;11.03;74.25;100459.49;257100;1104;115577;-67
2021/09/22 20:07:19;;;;;;;15.87;11.10;;;;;;;11.09;74.30;100464.77;257067;1104;115753;-67
2021/09/22 20:12:23;;;;;;;12.15;10.75;;;;;;;11.16;74.47;100458.56;257147;1104;116336;-67
2021/09/22 20:17:27;;;;;;;15.10;9.15;;;;;;;11.17;74.28;100454.86;256222;1099;116344;-67
2021/09/22 20:22:31;;;;;;;14.60;9.28;;;;;;;11.19;74.21;100452.78;257152;1104;115771;-66
2021/09/22 20:27:36;;;;;;;12.48;9.05;;;;;;;11.20;74.36;100460.57;255485;1104;115518;-67
2021/09/22 20:32:39;;;;;;;15.67;10.90;;;;;;;11.21;74.22;100456.87;255561;1104;115296;-66
2021/09/22 20:37:43;;;;;;;12.73;9.98;;;;;;;11.16;74.62;100455.89;255180;1104;115433;-67
2021/09/22 20:42:49;;;;;;;16.78;9.73;;;;;;;11.10;74.37;100449.58;254580;1104;115579;-68
2021/09/22 20:47:54;;;;;;;15.68;9.80;;;;;;;11.05;74.78;100455.57;253666;1104;118702;-66
2021/09/22 20:52:57;;;;;;;14.35;10.25;;;;;;;11.03;74.54;100457.64;253505;1104;114896;-68
2021/09/22 20:58:00;;;;;;;12.45;9.80;;;;;;;10.97;74.72;100450.54;254179;1104;115864;-68
2021/09/22 21:03:03;;;;;;;15.35;10.80;;;;;;;10.94;74.58;100445.64;253999;1104;115796;-67
2021/09/22 21:08:06;;;;;;;13.43;10.80;;;;;;;10.90;74.92;100440.96;253971;1104;115879;-69
2021/09/22 21:13:10;;;;;;;21.33;11.98;;;;;;;10.88;74.92;100441.18;254303;1104;115704;-70
2021/09/22 21:18:14;;;;;;;19.10;11.75;;;;;;;10.88;75.18;100435.84;253896;1104;115221;-69
2021/09/22 21:23:17;;;;;;;19.20;10.98;;;;;;;10.89;75.03;100442.00;254636;1104;115871;-69
2021/09/22 21:28:20;;;;;;;17.20;10.65;;;;;;;10.89;75.43;100440.15;254184;1104;115667;-69
2021/09/22 21:33:26;;;;;;;17.57;10.33;;;;;;;10.82;74.96;100431.38;254290;1104;115814;-69
2021/09/22 21:38:30;;;;;;;15.03;10.23;;;;;;;10.79;75.12;100423.81;256239;1104;115588;-69
2021/09/22 21:43:34;;;;;;;15.03;10.23;;;;;;;10.75;74.92;100419.95;255666;1104;116423;-69
2021/09/22 21:48:37;;;;;;;13.50;9.80;;;;;;;10.64;74.79;100426.02;255548;1104;115967;-69
2021/09/22 21:53:42;;;;;;;17.00;9.80;;;;;;;10.53;75.07;100416.87;255907;1104;115633;-69
2021/09/22 21:58:46;;;;;;;15.98;9.50;;;;;;;10.51;75.22;100423.45;255694;1104;116178;-69
2021/09/22 22:03:49;;;;;;;15.30;11.10;;;;;;;10.48;75.18;100434.54;255241;1104;116145;-69
2021/09/22 22:08:53;;;;;;;13.50;8.75;;;;;;;10.51;75.64;100431.44;255677;1104;117627;-69
2021/09/22 22:13:57;;;;;;;20.73;10.78;;;;;;;10.50;75.77;100424.48;257326;1104;116122;-69
2021/09/22 22:19:01;;;;;;;12.08;9.03;;;;;;;10.49;75.61;100430.84;254912;1104;117473;-68
2021/09/22 22:24:05;;;;;;;14.78;10.23;;;;;;;10.46;75.38;100432.09;253833;1104;116401;-68
2021/09/22 22:29:12;;;;;;;16.15;10.40;;;;;;;10.43;75.43;100421.86;255046;1104;116325;-68
2021/09/22 22:34:17;;;;;;;14.77;9.30;;;;;;;10.39;75.31;100415.36;254298;1104;116448;-67
2021/09/22 22:39:21;;;;;;;20.98;11.20;;;;;;;10.38;75.80;100414.54;255729;1104;116139;-68
2021/09/22 22:44:25;;;;;;;12.18;9.60;;;;;;;10.35;75.71;100414.16;255314;1104;116671;-68
2021/09/22 22:49:28;;;;;;;16.10;11.20;;;;;;;10.36;76.13;100416.60;254956;1104;115743;-69
2021/09/22 22:54:31;;;;;;;17.20;11.60;;;;;;;10.31;75.97;100397.78;253754;1104;116487;-68